Time;durP1;ratioP1;P1;durP2;ratioP2;P2;SDS_P1;SDS_P2;PMS_P1;PMS_P2;Temp;Humidity;BMP_temperature;BMP_pressure;BME280_temperature;BME280_humidity;BME280_pressure;Samples;Min_cycle;Max_cycle;Signal;HPM_P1;HPM_P2
2022/10/10 00:00:01;;;;;;;;;;;;;;;;;;351574;28;912;-61
2022/10/10 00:00:11;;;;;;;;;;;;;;;;;;351632;28;821;-61
2022/10/10 00:00:22;;;;;;;;;;;;;;;;;;351541;28;769;-61
2022/10/10 00:00:32;;;;;;;;;;;;;;;;;;349349;28;1438;-61
2022/10/10 00:00:43;;;;;;;;;;;;;;;;;;349715;28;1411;-61
2022/10/10 00:00:53;;;;;;;;;;;;;;;;;;351560;28;880;-61
2022/10/10 00:01:03;;;;;;;;;;;;;;;;;;351557;28;916;-61
2022/10/10 00:01:14;;;;;;;;;;;;;;;;;;351603;28;939;-61
2022/10/10 00:01:25;;;;;;;;;;;;;;;;;;351555;28;921;-61
2022/10/10 00:01:36;;;;;;;;;;;;;;;;;;351569;28;809;-61
2022/10/10 00:01:46;;;;;;;;;;;;;;;;;;351574;28;821;-62
2022/10/10 00:01:56;;;;;;;;;;;;;;;;;;351580;28;901;-61
2022/10/10 00:02:07;;;;;;;;;;;;;;;;;;351551;28;977;-61
2022/10/10 00:02:17;;;;;;;;;;;;;;;;;;351573;28;1007;-61
2022/10/10 00:02:28;;;;;;;;;;;;;;;;;;351471;28;928;-61
2022/10/10 00:02:38;;;;;;;;;;;;;;;;;;351514;28;1961;-61
2022/10/10 00:02:48;;;;;;;;;;;;;;;;;;351541;28;936;-61
2022/10/10 00:02:58;;;;;;;;;;;;;;;;;;351598;28;845;-61
2022/10/10 00:03:08;;;;;;;;;;;;;;;;;;351539;28;988;-61
2022/10/10 00:03:19;;;;;;;;;;;;;;;;;;351555;28;936;-61
2022/10/10 00:03:29;;;;;;;;;;;;;;;;;;351534;28;933;-61
2022/10/10 00:03:39;;;;;;;;;;;;;;;;;;351517;28;963;-61
2022/10/10 00:03:50;;;;;;;;;;;;;;;;;;351568;28;992;-61
2022/10/10 00:04:00;;;;;;;;;;;;;;;;;;351586;28;931;-61
2022/10/10 00:04:10;;;;;;;;;;;;;;;;;;351587;28;908;-61
2022/10/10 00:04:21;;;;;;;;;;;;;;;;;;351560;28;940;-61
2022/10/10 00:04:31;;;;;;;;;;;;;;;;;;351456;28;1023;-61
2022/10/10 00:04:41;;;;;;;;;;;;;;;;;;351590;28;888;-61
2022/10/10 00:04:54;;;;;;;;;;;;;;;;;;351528;28;924;-61
2022/10/10 00:05:04;;;;;;;;;;;;;;;;;;351604;28;929;-61
2022/10/10 00:05:15;;;;;;;;;;;;;;;;;;351526;28;868;-61
2022/10/10 00:05:25;;;;;;;;;;;;;;;;;;351567;28;908;-62
2022/10/10 00:05:36;;;;;;;;;;;;;;;;;;351455;28;1055;-62
2022/10/10 00:05:46;;;;;;;;;;;;;;;;;;351514;28;1023;-61
2022/10/10 00:05:57;;;;;;;;;;;;;;;;;;351534;28;746;-61
2022/10/10 00:06:07;;;;;;;;;;;;;;;;;;351599;28;983;-61
2022/10/10 00:06:17;;;;;;;;;;;;;;;;;;351517;28;1015;-62
2022/10/10 00:06:28;;;;;;;;;;;;;;;;;;351581;28;968;-61
2022/10/10 00:06:38;;;;;;;;;;;;;;;;;;351314;28;991;-61
2022/10/10 00:06:49;;;;;;;;;;;;;;;;;;351569;28;960;-61
2022/10/10 00:06:59;;;;;;;;;;;;;;;;;;351556;28;975;-61
2022/10/10 00:07:09;;;;;;;;;;;;;;;;;;351522;28;857;-62
2022/10/10 00:07:19;;;;;;;;;;;;;;;;;;351575;28;967;-61
2022/10/10 00:07:29;;;;;;;;;;;;;;;;;;351580;28;916;-61
2022/10/10 00:07:40;;;;;;;;;;;;;;;;;;351558;28;781;-61
2022/10/10 00:07:50;;;;;;;;;;;;;;;;;;351517;28;917;-61
2022/10/10 00:08:00;;;;;;;;;;;;;;;;;;351523;28;952;-61
2022/10/10 00:08:11;;;;;;;;;;;;;;;;;;351559;28;1019;-61
2022/10/10 00:08:21;;;;;;;;;;;;;;;;;;351581;28;861;-61
2022/10/10 00:08:31;;;;;;;;;;;;;;;;;;351577;28;924;-61
2022/10/10 00:08:42;;;;;;;;;;;;;;;;;;351573;28;840;-61
2022/10/10 00:08:52;;;;;;;;;;;;;;;;;;351559;28;925;-61
2022/10/10 00:09:03;;;;;;;;;;;;;;;;;;351532;28;1154;-61
2022/10/10 00:09:13;;;;;;;;;;;;;;;;;;351582;28;833;-61
2022/10/10 00:09:24;;;;;;;;;;;;;;;;;;351567;28;948;-61
2022/10/10 00:09:34;;;;;;;;;;;;;;;;;;351619;28;833;-61
2022/10/10 00:09:44;;;;;;;;;;;;;;;;;;351552;28;951;-62
2022/10/10 00:09:54;;;;;;;;;;;;;;;;;;351471;28;1016;-61
2022/10/10 00:10:05;;;;;;;;;;;;;;;;;;351614;28;813;-61
2022/10/10 00:10:15;;;;;;;;;;;;;;;;;;351580;28;825;-61
2022/10/10 00:10:25;;;;;;;;;;;;;;;;;;351604;28;991;-61
2022/10/10 00:10:36;;;;;;;;;;;;;;;;;;351521;28;968;-61
2022/10/10 00:10:47;;;;;;;;;;;;;;;;;;351524;28;1035;-61
2022/10/10 00:10:57;;;;;;;;;;;;;;;;;;351547;28;972;-61
2022/10/10 00:11:08;;;;;;;;;;;;;;;;;;351528;28;864;-61
2022/10/10 00:11:20;;;;;;;;;;;;;;;;;;351573;28;960;-61
2022/10/10 00:11:30;;;;;;;;;;;;;;;;;;351491;28;829;-61
2022/10/10 00:11:40;;;;;;;;;;;;;;;;;;351572;28;912;-61
2022/10/10 00:11:50;;;;;;;;;;;;;;;;;;351572;28;920;-61
2022/10/10 00:12:00;;;;;;;;;;;;;;;;;;351490;28;829;-61
2022/10/10 00:12:11;;;;;;;;;;;;;;;;;;351562;28;948;-61
2022/10/10 00:12:21;;;;;;;;;;;;;;;;;;351602;28;778;-61
2022/10/10 00:12:31;;;;;;;;;;;;;;;;;;351541;28;926;-61
2022/10/10 00:12:41;;;;;;;;;;;;;;;;;;351553;28;941;-61
2022/10/10 00:12:51;;;;;;;;;;;;;;;;;;351559;28;960;-61
2022/10/10 00:13:02;;;;;;;;;;;;;;;;;;351526;28;786;-62
2022/10/10 00:13:13;;;;;;;;;;;;;;;;;;351581;28;952;-61
2022/10/10 00:13:23;;;;;;;;;;;;;;;;;;351543;28;991;-61
2022/10/10 00:13:33;;;;;;;;;;;;;;;;;;351538;28;853;-62
2022/10/10 00:13:44;;;;;;;;;;;;;;;;;;349610;28;1589;-61
2022/10/10 00:13:54;;;;;;;;;;;;;;;;;;351586;28;1005;-61
2022/10/10 00:14:04;;;;;;;;;;;;;;;;;;351494;28;928;-61
2022/10/10 00:14:15;;;;;;;;;;;;;;;;;;351517;28;793;-62
2022/10/10 00:14:25;;;;;;;;;;;;;;;;;;351534;28;1020;-62
2022/10/10 00:14:35;;;;;;;;;;;;;;;;;;351518;28;885;-62
2022/10/10 00:14:45;;;;;;;;;;;;;;;;;;351510;28;1273;-62
2022/10/10 00:14:55;;;;;;;;;;;;;;;;;;351569;28;999;-62
2022/10/10 00:15:06;;;;;;;;;;;;;;;;;;351518;28;999;-62
2022/10/10 00:15:16;;;;;;;;;;;;;;;;;;351542;28;1003;-62
2022/10/10 00:15:26;;;;;;;;;;;;;;;;;;351539;28;983;-61
2022/10/10 00:15:37;;;;;;;;;;;;;;;;;;351478;28;1070;-62
2022/10/10 00:15:47;;;;;;;;;;;;;;;;;;351519;28;940;-62
2022/10/10 00:15:57;;;;;;;;;;;;;;;;;;351586;28;975;-62
2022/10/10 00:16:08;;;;;;;;;;;;;;;;;;351494;28;920;-62
2022/10/10 00:16:19;;;;;;;;;;;;;;;;;;351497;28;928;-62
2022/10/10 00:16:29;;;;;;;;;;;;;;;;;;349923;28;2070;-61
2022/10/10 00:16:39;;;;;;;;;;;;;;;;;;350060;28;913;-62
2022/10/10 00:16:49;;;;;;;;;;;;;;;;;;350124;28;953;-62
2022/10/10 00:17:00;;;;;;;;;;;;;;;;;;350154;28;995;-62
2022/10/10 00:17:10;;;;;;;;;;;;;;;;;;350029;28;1008;-62
2022/10/10 00:17:20;;;;;;;;;;;;;;;;;;350164;28;917;-61
2022/10/10 00:17:30;;;;;;;;;;;;;;;;;;350160;28;936;-61
2022/10/10 00:17:42;;;;;;;;;;;;;;;;;;350108;28;925;-61
2022/10/10 00:17:52;;;;;;;;;;;;;;;;;;350106;28;952;-62
2022/10/10 00:18:03;;;;;;;;;;;;;;;;;;350124;28;1012;-62
2022/10/10 00:18:13;;;;;;;;;;;;;;;;;;350104;28;972;-62
2022/10/10 00:18:23;;;;;;;;;;;;;;;;;;350122;28;959;-61
2022/10/10 00:18:33;;;;;;;;;;;;;;;;;;350159;28;1043;-61
2022/10/10 00:18:44;;;;;;;;;;;;;;;;;;350117;28;984;-61
2022/10/10 00:18:54;;;;;;;;;;;;;;;;;;350136;28;766;-61
2022/10/10 00:19:04;;;;;;;;;;;;;;;;;;350105;28;1000;-61
2022/10/10 00:19:14;;;;;;;;;;;;;;;;;;350060;28;956;-62
2022/10/10 00:19:25;;;;;;;;;;;;;;;;;;350159;28;956;-61
2022/10/10 00:19:35;;;;;;;;;;;;;;;;;;350155;28;976;-62
2022/10/10 00:19:45;;;;;;;;;;;;;;;;;;350118;28;775;-61
2022/10/10 00:19:55;;;;;;;;;;;;;;;;;;350110;28;1024;-62
2022/10/10 00:20:06;;;;;;;;;;;;;;;;;;350157;28;987;-62
2022/10/10 00:20:17;;;;;;;;;;;;;;;;;;350058;28;1067;-62
2022/10/10 00:20:27;;;;;;;;;;;;;;;;;;350176;28;940;-62
2022/10/10 00:20:37;;;;;;;;;;;;;;;;;;350147;28;1004;-61
2022/10/10 00:20:49;;;;;;;;;;;;;;;;;;350078;28;808;-62
2022/10/10 00:21:00;;;;;;;;;;;;;;;;;;350159;28;996;-62
2022/10/10 00:21:10;;;;;;;;;;;;;;;;;;350141;28;754;-62
2022/10/10 00:21:20;;;;;;;;;;;;;;;;;;350110;28;778;-62
2022/10/10 00:21:31;;;;;;;;;;;;;;;;;;350098;28;1075;-62
2022/10/10 00:21:41;;;;;;;;;;;;;;;;;;350145;28;964;-62
2022/10/10 00:21:51;;;;;;;;;;;;;;;;;;350091;28;933;-62
2022/10/10 00:22:01;;;;;;;;;;;;;;;;;;350140;28;1011;-61
2022/10/10 00:22:11;;;;;;;;;;;;;;;;;;350127;28;917;-62
2022/10/10 00:22:22;;;;;;;;;;;;;;;;;;350062;28;771;-62
2022/10/10 00:22:32;;;;;;;;;;;;;;;;;;350151;28;925;-62
2022/10/10 00:22:42;;;;;;;;;;;;;;;;;;350065;28;1977;-62
2022/10/10 00:22:52;;;;;;;;;;;;;;;;;;350063;28;980;-61
2022/10/10 00:23:02;;;;;;;;;;;;;;;;;;350114;28;1027;-61
2022/10/10 00:23:12;;;;;;;;;;;;;;;;;;350158;28;909;-61
2022/10/10 00:23:23;;;;;;;;;;;;;;;;;;350125;28;795;-61
2022/10/10 00:23:33;;;;;;;;;;;;;;;;;;350092;28;1472;-61
2022/10/10 00:23:43;;;;;;;;;;;;;;;;;;350102;28;869;-61
2022/10/10 00:23:54;;;;;;;;;;;;;;;;;;350090;28;913;-61
2022/10/10 00:24:04;;;;;;;;;;;;;;;;;;350135;28;852;-61
2022/10/10 00:24:14;;;;;;;;;;;;;;;;;;350129;28;901;-61
2022/10/10 00:24:24;;;;;;;;;;;;;;;;;;350064;28;762;-61
2022/10/10 00:24:35;;;;;;;;;;;;;;;;;;350135;28;999;-61
2022/10/10 00:24:45;;;;;;;;;;;;;;;;;;350121;28;984;-61
2022/10/10 00:24:55;;;;;;;;;;;;;;;;;;350121;28;889;-61
2022/10/10 00:25:06;;;;;;;;;;;;;;;;;;350177;28;841;-61
2022/10/10 00:25:16;;;;;;;;;;;;;;;;;;350068;28;1003;-61
2022/10/10 00:25:26;;;;;;;;;;;;;;;;;;350089;28;945;-61
2022/10/10 00:25:36;;;;;;;;;;;;;;;;;;350142;28;833;-61
2022/10/10 00:25:48;;;;;;;;;;;;;;;;;;350149;28;917;-61
2022/10/10 00:25:58;;;;;;;;;;;;;;;;;;350070;28;984;-61
2022/10/10 00:26:08;;;;;;;;;;;;;;;;;;350116;28;984;-61
2022/10/10 00:26:18;;;;;;;;;;;;;;;;;;350056;28;972;-61
2022/10/10 00:26:29;;;;;;;;;;;;;;;;;;350069;28;967;-61
2022/10/10 00:26:39;;;;;;;;;;;;;;;;;;350087;28;956;-61
2022/10/10 00:26:49;;;;;;;;;;;;;;;;;;350102;28;1014;-61
2022/10/10 00:26:59;;;;;;;;;;;;;;;;;;350103;28;1039;-60
2022/10/10 00:27:09;;;;;;;;;;;;;;;;;;350080;28;964;-61
2022/10/10 00:27:19;;;;;;;;;;;;;;;;;;350114;28;1096;-61
2022/10/10 00:27:30;;;;;;;;;;;;;;;;;;350159;28;971;-61
2022/10/10 00:27:40;;;;;;;;;;;;;;;;;;350089;28;972;-61
2022/10/10 00:27:50;;;;;;;;;;;;;;;;;;350106;28;1059;-61
2022/10/10 00:28:01;;;;;;;;;;;;;;;;;;350082;28;486;-61
2022/10/10 00:28:11;;;;;;;;;;;;;;;;;;350117;28;976;-61
2022/10/10 00:28:21;;;;;;;;;;;;;;;;;;349577;28;1427;-61
2022/10/10 00:28:32;;;;;;;;;;;;;;;;;;350068;28;1391;-61
2022/10/10 00:28:42;;;;;;;;;;;;;;;;;;351454;28;929;-61
2022/10/10 00:28:52;;;;;;;;;;;;;;;;;;351554;28;797;-61
2022/10/10 00:29:03;;;;;;;;;;;;;;;;;;351504;28;1089;-61
2022/10/10 00:29:13;;;;;;;;;;;;;;;;;;351498;28;1043;-61
2022/10/10 00:29:23;;;;;;;;;;;;;;;;;;351568;28;825;-61
2022/10/10 00:29:33;;;;;;;;;;;;;;;;;;351544;28;921;-61
2022/10/10 00:29:43;;;;;;;;;;;;;;;;;;351523;28;957;-61
2022/10/10 00:29:53;;;;;;;;;;;;;;;;;;351496;28;813;-61
2022/10/10 00:30:05;;;;;;;;;;;;;;;;;;351495;28;983;-61
2022/10/10 00:30:15;;;;;;;;;;;;;;;;;;351505;28;963;-61
2022/10/10 00:30:25;;;;;;;;;;;;;;;;;;351562;28;928;-61
2022/10/10 00:30:36;;;;;;;;;;;;;;;;;;351466;28;917;-61
2022/10/10 00:30:46;;;;;;;;;;;;;;;;;;351514;28;782;-61
2022/10/10 00:30:56;;;;;;;;;;;;;;;;;;351539;28;897;-61
2022/10/10 00:31:07;;;;;;;;;;;;;;;;;;351547;28;976;-61
2022/10/10 00:31:17;;;;;;;;;;;;;;;;;;351430;28;992;-61
2022/10/10 00:31:28;;;;;;;;;;;;;;;;;;351533;28;778;-61
2022/10/10 00:31:38;;;;;;;;;;;;;;;;;;351518;28;951;-61
2022/10/10 00:31:48;;;;;;;;;;;;;;;;;;351562;28;979;-61
2022/10/10 00:31:58;;;;;;;;;;;;;;;;;;351470;28;956;-61
2022/10/10 00:32:09;;;;;;;;;;;;;;;;;;351511;28;837;-61
2022/10/10 00:32:19;;;;;;;;;;;;;;;;;;351320;28;1263;-61
2022/10/10 00:32:29;;;;;;;;;;;;;;;;;;351383;28;1027;-61
2022/10/10 00:32:39;;;;;;;;;;;;;;;;;;351398;28;1058;-61
2022/10/10 00:32:49;;;;;;;;;;;;;;;;;;351321;28;1299;-61
2022/10/10 00:33:00;;;;;;;;;;;;;;;;;;351456;28;975;-61
2022/10/10 00:33:10;;;;;;;;;;;;;;;;;;351385;28;880;-61
2022/10/10 00:33:20;;;;;;;;;;;;;;;;;;351420;28;959;-61
2022/10/10 00:33:31;;;;;;;;;;;;;;;;;;351475;28;821;-61
2022/10/10 00:33:41;;;;;;;;;;;;;;;;;;351488;28;873;-61
2022/10/10 00:33:51;;;;;;;;;;;;;;;;;;351399;28;940;-61
2022/10/10 00:34:01;;;;;;;;;;;;;;;;;;351470;28;837;-60
2022/10/10 00:34:12;;;;;;;;;;;;;;;;;;351413;28;991;-61
2022/10/10 00:34:22;;;;;;;;;;;;;;;;;;351416;28;892;-61
2022/10/10 00:34:32;;;;;;;;;;;;;;;;;;351465;28;972;-61
2022/10/10 00:34:42;;;;;;;;;;;;;;;;;;351465;28;972;-61
2022/10/10 00:34:52;;;;;;;;;;;;;;;;;;351372;28;944;-61
2022/10/10 00:35:03;;;;;;;;;;;;;;;;;;351434;28;928;-61
2022/10/10 00:35:14;;;;;;;;;;;;;;;;;;351375;28;1013;-61
2022/10/10 00:35:25;;;;;;;;;;;;;;;;;;351416;28;983;-61
2022/10/10 00:35:35;;;;;;;;;;;;;;;;;;351395;28;929;-61
2022/10/10 00:35:45;;;;;;;;;;;;;;;;;;351439;28;920;-61
2022/10/10 00:35:55;;;;;;;;;;;;;;;;;;351405;28;944;-61
2022/10/10 00:36:06;;;;;;;;;;;;;;;;;;351458;28;849;-61
2022/10/10 00:36:19;;;;;;;;;;;;;;;;;;351452;28;818;-61
2022/10/10 00:36:29;;;;;;;;;;;;;;;;;;351384;28;1019;-61
2022/10/10 00:36:39;;;;;;;;;;;;;;;;;;351518;28;857;-61
2022/10/10 00:36:49;;;;;;;;;;;;;;;;;;351447;28;976;-61
2022/10/10 00:36:59;;;;;;;;;;;;;;;;;;351406;28;917;-61
2022/10/10 00:37:10;;;;;;;;;;;;;;;;;;351392;28;983;-61
2022/10/10 00:37:20;;;;;;;;;;;;;;;;;;351449;28;983;-61
2022/10/10 00:37:30;;;;;;;;;;;;;;;;;;351467;28;852;-61
2022/10/10 00:37:40;;;;;;;;;;;;;;;;;;351455;28;762;-61
2022/10/10 00:37:51;;;;;;;;;;;;;;;;;;351396;28;972;-61
2022/10/10 00:38:01;;;;;;;;;;;;;;;;;;351433;28;933;-61
2022/10/10 00:38:12;;;;;;;;;;;;;;;;;;351392;28;1271;-61
2022/10/10 00:38:22;;;;;;;;;;;;;;;;;;351394;28;1019;-61
2022/10/10 00:38:33;;;;;;;;;;;;;;;;;;351421;28;865;-60
2022/10/10 00:38:43;;;;;;;;;;;;;;;;;;351451;28;1197;-61
2022/10/10 00:38:54;;;;;;;;;;;;;;;;;;351396;28;1470;-60
2022/10/10 00:39:04;;;;;;;;;;;;;;;;;;351391;28;911;-61
2022/10/10 00:39:14;;;;;;;;;;;;;;;;;;351369;28;1238;-61
2022/10/10 00:39:24;;;;;;;;;;;;;;;;;;351440;28;987;-61
2022/10/10 00:39:34;;;;;;;;;;;;;;;;;;351429;28;889;-61
2022/10/10 00:39:45;;;;;;;;;;;;;;;;;;351453;28;952;-61
2022/10/10 00:39:55;;;;;;;;;;;;;;;;;;351388;28;932;-61
2022/10/10 00:40:05;;;;;;;;;;;;;;;;;;351420;28;991;-61
2022/10/10 00:40:16;;;;;;;;;;;;;;;;;;351311;28;1202;-61
2022/10/10 00:40:26;;;;;;;;;;;;;;;;;;351450;28;929;-61
2022/10/10 00:40:43;;;;;;;;;;;;;;;;;;351405;28;780;-61
2022/10/10 00:40:55;;;;;;;;;;;;;;;;;;351415;28;981;-61
2022/10/10 00:41:05;;;;;;;;;;;;;;;;;;351386;28;861;-61
2022/10/10 00:41:16;;;;;;;;;;;;;;;;;;351409;28;892;-61
2022/10/10 00:41:27;;;;;;;;;;;;;;;;;;351355;28;1099;-61
2022/10/10 00:41:38;;;;;;;;;;;;;;;;;;351383;28;996;-61
2022/10/10 00:41:48;;;;;;;;;;;;;;;;;;351434;28;1100;-61
2022/10/10 00:41:58;;;;;;;;;;;;;;;;;;351433;28;905;-61
2022/10/10 00:42:12;;;;;;;;;;;;;;;;;;351428;28;913;-61
2022/10/10 00:42:22;;;;;;;;;;;;;;;;;;351310;28;1115;-61
2022/10/10 00:42:32;;;;;;;;;;;;;;;;;;351470;28;980;-61
2022/10/10 00:42:42;;;;;;;;;;;;;;;;;;351360;28;1905;-61
2022/10/10 00:42:52;;;;;;;;;;;;;;;;;;351454;28;986;-61
2022/10/10 00:43:03;;;;;;;;;;;;;;;;;;351442;28;845;-61
2022/10/10 00:43:13;;;;;;;;;;;;;;;;;;349296;28;1450;-61
2022/10/10 00:43:25;;;;;;;;;;;;;;;;;;351042;28;1273;-61
2022/10/10 00:43:35;;;;;;;;;;;;;;;;;;350021;28;932;-61
2022/10/10 00:44:06;;;;;;;;;;;;;;;;;;350056;28;932;-61
2022/10/10 00:44:16;;;;;;;;;;;;;;;;;;350045;28;916;-61
2022/10/10 00:44:27;;;;;;;;;;;;;;;;;;350095;28;852;-61
2022/10/10 00:44:38;;;;;;;;;;;;;;;;;;350126;28;1050;-61
2022/10/10 00:45:08;;;;;;;;;;;;;;;;;;350029;28;865;-60
2022/10/10 00:45:18;;;;;;;;;;;;;;;;;;349933;28;1003;-62
2022/10/10 00:45:28;;;;;;;;;;;;;;;;;;349911;28;1061;-61
2022/10/10 00:45:40;;;;;;;;;;;;;;;;;;350060;28;995;-61
2022/10/10 00:45:50;;;;;;;;;;;;;;;;;;350046;28;1063;-61
2022/10/10 00:46:00;;;;;;;;;;;;;;;;;;350067;28;893;-61
2022/10/10 00:46:10;;;;;;;;;;;;;;;;;;350047;28;940;-61
2022/10/10 00:46:21;;;;;;;;;;;;;;;;;;349963;28;788;-61
2022/10/10 00:46:31;;;;;;;;;;;;;;;;;;348990;28;2012;-61
2022/10/10 00:46:41;;;;;;;;;;;;;;;;;;349973;28;1213;-61
2022/10/10 00:46:51;;;;;;;;;;;;;;;;;;350065;28;912;-61
2022/10/10 00:47:02;;;;;;;;;;;;;;;;;;350003;28;956;-61
2022/10/10 00:47:12;;;;;;;;;;;;;;;;;;350090;28;916;-61
2022/10/10 00:47:22;;;;;;;;;;;;;;;;;;349987;28;956;-61
2022/10/10 00:47:32;;;;;;;;;;;;;;;;;;349999;28;829;-61
2022/10/10 00:47:43;;;;;;;;;;;;;;;;;;350061;28;912;-61
2022/10/10 00:47:56;;;;;;;;;;;;;;;;;;350033;28;1011;-61
2022/10/10 00:48:12;;;;;;;;;;;;;;;;;;349998;28;932;-61
2022/10/10 00:48:22;;;;;;;;;;;;;;;;;;350023;28;944;-61
2022/10/10 00:48:42;;;;;;;;;;;;;;;;;;350002;28;998;-61
2022/10/10 00:48:52;;;;;;;;;;;;;;;;;;350080;28;782;-61
2022/10/10 00:49:05;;;;;;;;;;;;;;;;;;349979;28;936;-61
2022/10/10 00:49:21;;;;;;;;;;;;;;;;;;350063;28;873;-61
2022/10/10 00:49:34;;;;;;;;;;;;;;;;;;349951;28;988;-61
2022/10/10 00:49:44;;;;;;;;;;;;;;;;;;350051;28;1043;-61
2022/10/10 00:49:55;;;;;;;;;;;;;;;;;;350027;28;996;-61
2022/10/10 00:50:05;;;;;;;;;;;;;;;;;;349996;28;987;-61
2022/10/10 00:50:17;;;;;;;;;;;;;;;;;;350047;28;1003;-61
2022/10/10 00:50:28;;;;;;;;;;;;;;;;;;349965;28;1065;-61
2022/10/10 00:50:42;;;;;;;;;;;;;;;;;;350015;28;964;-61
2022/10/10 00:50:52;;;;;;;;;;;;;;;;;;349792;28;995;-61
2022/10/10 00:51:05;;;;;;;;;;;;;;;;;;349972;28;988;-61
2022/10/10 00:51:17;;;;;;;;;;;;;;;;;;349970;28;1091;-61
2022/10/10 00:51:28;;;;;;;;;;;;;;;;;;350031;28;845;-61
2022/10/10 00:51:38;;;;;;;;;;;;;;;;;;349983;28;916;-61
2022/10/10 00:51:51;;;;;;;;;;;;;;;;;;350020;28;995;-61
2022/10/10 00:52:01;;;;;;;;;;;;;;;;;;350036;28;999;-61
2022/10/10 00:52:12;;;;;;;;;;;;;;;;;;350078;28;960;-61
2022/10/10 00:52:22;;;;;;;;;;;;;;;;;;350015;28;888;-61
2022/10/10 00:52:32;;;;;;;;;;;;;;;;;;349983;28;1000;-61
2022/10/10 00:52:42;;;;;;;;;;;;;;;;;;350036;28;963;-61
2022/10/10 00:52:53;;;;;;;;;;;;;;;;;;349965;28;876;-61
2022/10/10 00:53:04;;;;;;;;;;;;;;;;;;350029;28;925;-61
2022/10/10 00:53:16;;;;;;;;;;;;;;;;;;350080;28;774;-61
2022/10/10 00:53:33;;;;;;;;;;;;;;;;;;350005;28;850;-61
2022/10/10 00:53:45;;;;;;;;;;;;;;;;;;349997;28;967;-61
2022/10/10 00:53:58;;;;;;;;;;;;;;;;;;350006;28;928;-61
2022/10/10 00:54:11;;;;;;;;;;;;;;;;;;350065;28;920;-61
2022/10/10 00:54:22;;;;;;;;;;;;;;;;;;349991;28;845;-61
2022/10/10 00:54:32;;;;;;;;;;;;;;;;;;350057;28;845;-61
2022/10/10 00:54:42;;;;;;;;;;;;;;;;;;350029;28;953;-61
2022/10/10 00:54:53;;;;;;;;;;;;;;;;;;350025;28;904;-61
2022/10/10 00:55:03;;;;;;;;;;;;;;;;;;350052;28;992;-61
2022/10/10 00:55:14;;;;;;;;;;;;;;;;;;350052;28;872;-61
2022/10/10 00:55:24;;;;;;;;;;;;;;;;;;349973;28;991;-61
2022/10/10 00:55:35;;;;;;;;;;;;;;;;;;350077;28;770;-61
2022/10/10 00:55:46;;;;;;;;;;;;;;;;;;349975;28;924;-61
2022/10/10 00:55:57;;;;;;;;;;;;;;;;;;350007;28;940;-61
2022/10/10 00:56:08;;;;;;;;;;;;;;;;;;350046;28;845;-61
2022/10/10 00:56:20;;;;;;;;;;;;;;;;;;350067;28;948;-61
2022/10/10 00:56:36;;;;;;;;;;;;;;;;;;349978;28;1043;-61
2022/10/10 00:56:49;;;;;;;;;;;;;;;;;;350071;28;925;-61
2022/10/10 00:57:03;;;;;;;;;;;;;;;;;;350078;28;777;-61
2022/10/10 00:57:13;;;;;;;;;;;;;;;;;;350021;28;1003;-61
2022/10/10 00:57:23;;;;;;;;;;;;;;;;;;350006;28;968;-61
2022/10/10 00:57:34;;;;;;;;;;;;;;;;;;349995;28;944;-61
2022/10/10 00:57:44;;;;;;;;;;;;;;;;;;349975;28;1026;-61
2022/10/10 00:57:54;;;;;;;;;;;;;;;;;;349644;28;1443;-61
2022/10/10 00:58:05;;;;;;;;;;;;;;;;;;351414;28;1363;-61
2022/10/10 00:58:16;;;;;;;;;;;;;;;;;;351413;28;913;-61
2022/10/10 00:58:26;;;;;;;;;;;;;;;;;;351378;28;928;-61
2022/10/10 00:58:39;;;;;;;;;;;;;;;;;;351423;28;884;-61
2022/10/10 00:58:52;;;;;;;;;;;;;;;;;;351369;28;920;-61
2022/10/10 00:59:03;;;;;;;;;;;;;;;;;;351377;28;972;-61
2022/10/10 00:59:14;;;;;;;;;;;;;;;;;;351432;28;912;-61
2022/10/10 00:59:25;;;;;;;;;;;;;;;;;;351392;28;928;-61
2022/10/10 00:59:36;;;;;;;;;;;;;;;;;;351360;28;952;-61
2022/10/10 00:59:46;;;;;;;;;;;;;;;;;;351429;28;1034;-61
2022/10/10 00:59:58;;;;;;;;;;;;;;;;;;351403;28;833;-61
2022/10/10 01:00:09;;;;;;;;;;;;;;;;;;351405;28;1034;-61
2022/10/10 01:00:19;;;;;;;;;;;;;;;;;;351369;28;932;-61
2022/10/10 01:00:29;;;;;;;;;;;;;;;;;;351433;28;928;-61
2022/10/10 01:00:39;;;;;;;;;;;;;;;;;;351396;28;770;-61
2022/10/10 01:00:50;;;;;;;;;;;;;;;;;;351382;28;963;-61
2022/10/10 01:01:01;;;;;;;;;;;;;;;;;;351445;28;770;-61
2022/10/10 01:01:11;;;;;;;;;;;;;;;;;;351410;28;900;-61
2022/10/10 01:01:21;;;;;;;;;;;;;;;;;;351413;28;811;-60
2022/10/10 01:01:32;;;;;;;;;;;;;;;;;;351429;28;888;-61
2022/10/10 01:01:42;;;;;;;;;;;;;;;;;;351440;28;828;-61
2022/10/10 01:01:52;;;;;;;;;;;;;;;;;;351431;28;1023;-61
2022/10/10 01:02:03;;;;;;;;;;;;;;;;;;351336;28;937;-61
2022/10/10 01:02:13;;;;;;;;;;;;;;;;;;351412;28;964;-61
2022/10/10 01:02:23;;;;;;;;;;;;;;;;;;351391;28;866;-61
2022/10/10 01:02:33;;;;;;;;;;;;;;;;;;351387;28;979;-61
2022/10/10 01:02:43;;;;;;;;;;;;;;;;;;351314;28;1906;-61
2022/10/10 01:02:54;;;;;;;;;;;;;;;;;;351454;28;941;-61
2022/10/10 01:03:04;;;;;;;;;;;;;;;;;;351385;28;988;-61
2022/10/10 01:03:14;;;;;;;;;;;;;;;;;;351405;28;893;-61
2022/10/10 01:03:25;;;;;;;;;;;;;;;;;;351415;28;932;-60
2022/10/10 01:03:35;;;;;;;;;;;;;;;;;;351417;28;924;-61
2022/10/10 01:03:45;;;;;;;;;;;;;;;;;;351419;28;959;-61
2022/10/10 01:03:57;;;;;;;;;;;;;;;;;;351405;28;908;-61
2022/10/10 01:04:27;;;;;;;;;;;;;;;;;;351316;28;1124;-61
2022/10/10 01:04:40;;;;;;;;;;;;;;;;;;351412;28;928;-61
2022/10/10 01:04:50;;;;;;;;;;;;;;;;;;351380;28;967;-60
2022/10/10 01:05:00;;;;;;;;;;;;;;;;;;351324;28;972;-61
2022/10/10 01:05:10;;;;;;;;;;;;;;;;;;351401;28;813;-61
2022/10/10 01:05:21;;;;;;;;;;;;;;;;;;351405;28;798;-61
2022/10/10 01:05:31;;;;;;;;;;;;;;;;;;351398;28;888;-61
2022/10/10 01:05:42;;;;;;;;;;;;;;;;;;351361;28;977;-61
2022/10/10 01:05:52;;;;;;;;;;;;;;;;;;351387;28;995;-61
2022/10/10 01:06:03;;;;;;;;;;;;;;;;;;351394;28;932;-61
2022/10/10 01:06:13;;;;;;;;;;;;;;;;;;351319;28;944;-61
2022/10/10 01:06:23;;;;;;;;;;;;;;;;;;351437;28;984;-61
2022/10/10 01:06:34;;;;;;;;;;;;;;;;;;351373;28;936;-61
2022/10/10 01:06:44;;;;;;;;;;;;;;;;;;351316;28;936;-61
2022/10/10 01:06:54;;;;;;;;;;;;;;;;;;351463;28;963;-61
2022/10/10 01:07:06;;;;;;;;;;;;;;;;;;351417;28;773;-61
2022/10/10 01:07:19;;;;;;;;;;;;;;;;;;351367;28;979;-61
2022/10/10 01:07:30;;;;;;;;;;;;;;;;;;351385;28;971;-61
2022/10/10 01:07:41;;;;;;;;;;;;;;;;;;351447;28;932;-61
2022/10/10 01:07:52;;;;;;;;;;;;;;;;;;351354;28;976;-61
2022/10/10 01:08:03;;;;;;;;;;;;;;;;;;351424;28;1089;-60
2022/10/10 01:08:15;;;;;;;;;;;;;;;;;;351376;28;920;-61
2022/10/10 01:08:25;;;;;;;;;;;;;;;;;;351371;28;1771;-61
2022/10/10 01:08:36;;;;;;;;;;;;;;;;;;351432;28;861;-61
2022/10/10 01:08:46;;;;;;;;;;;;;;;;;;351401;28;983;-61
2022/10/10 01:08:57;;;;;;;;;;;;;;;;;;351147;28;1003;-61
2022/10/10 01:09:07;;;;;;;;;;;;;;;;;;351436;28;880;-61
2022/10/10 01:09:17;;;;;;;;;;;;;;;;;;351435;28;987;-61
2022/10/10 01:09:27;;;;;;;;;;;;;;;;;;351398;28;856;-61
2022/10/10 01:09:39;;;;;;;;;;;;;;;;;;351453;28;1086;-61
2022/10/10 01:09:51;;;;;;;;;;;;;;;;;;351376;28;947;-61
2022/10/10 01:10:06;;;;;;;;;;;;;;;;;;351382;28;944;-61
2022/10/10 01:10:17;;;;;;;;;;;;;;;;;;351385;28;817;-61
2022/10/10 01:10:28;;;;;;;;;;;;;;;;;;351349;28;964;-61
2022/10/10 01:10:46;;;;;;;;;;;;;;;;;;351457;28;766;-61
2022/10/10 01:11:02;;;;;;;;;;;;;;;;;;351373;28;909;-61
2022/10/10 01:11:19;;;;;;;;;;;;;;;;;;349542;28;1450;-61
2022/10/10 01:11:45;;;;;;;;;;;;;;;;;;351349;28;916;-61
2022/10/10 01:12:15;;;;;;;;;;;;;;;;;;351419;28;991;-61
2022/10/10 01:12:26;;;;;;;;;;;;;;;;;;350568;28;1131;-61
2022/10/10 01:12:45;;;;;;;;;;;;;;;;;;351419;28;999;-61
2022/10/10 01:13:20;;;;;;;;;;;;;;;;;;351354;28;983;-61
2022/10/10 01:13:37;;;;;;;;;;;;;;;;;;351364;28;1027;-60
2022/10/10 01:14:04;;;;;;;;;;;;;;;;;;351347;28;937;-61
2022/10/10 01:14:30;;;;;;;;;;;;;;;;;;351437;28;824;-61
2022/10/10 01:14:46;;;;;;;;;;;;;;;;;;351417;28;987;-61
2022/10/10 01:15:12;;;;;;;;;;;;;;;;;;351392;28;940;-61
2022/10/10 01:15:38;;;;;;;;;;;;;;;;;;351415;28;913;-61
2022/10/10 01:15:59;;;;;;;;;;;;;;;;;;351417;28;924;-61
2022/10/10 01:16:20;;;;;;;;;;;;;;;;;;351420;28;975;-61
2022/10/10 01:16:49;;;;;;;;;;;;;;;;;;350039;28;2167;-61
2022/10/10 01:17:17;;;;;;;;;;;;;;;;;;348324;28;2048;-61
2022/10/10 01:17:27;;;;;;;;;;;;;;;;;;348631;28;889;-61
2022/10/10 01:17:42;;;;;;;;;;;;;;;;;;348607;28;913;-61
2022/10/10 01:17:58;;;;;;;;;;;;;;;;;;348599;28;1083;-61
2022/10/10 01:18:14;;;;;;;;;;;;;;;;;;348407;28;1957;-61
2022/10/10 01:18:32;;;;;;;;;;;;;;;;;;349438;28;1953;-61
2022/10/10 01:18:58;;;;;;;;;;;;;;;;;;349365;28;1715;-61
2022/10/10 01:19:27;;;;;;;;;;;;;;;;;;350000;28;917;-61
2022/10/10 01:19:50;;;;;;;;;;;;;;;;;;350039;28;1087;-61
2022/10/10 01:20:19;;;;;;;;;;;;;;;;;;349941;28;897;-61
2022/10/10 01:20:38;;;;;;;;;;;;;;;;;;349931;28;1040;-61
2022/10/10 01:20:58;;;;;;;;;;;;;;;;;;349922;28;794;-61
2022/10/10 01:21:14;;;;;;;;;;;;;;;;;;349994;28;924;-61
2022/10/10 01:21:35;;;;;;;;;;;;;;;;;;349991;28;920;-61
2022/10/10 01:21:55;;;;;;;;;;;;;;;;;;349859;28;877;-60
2022/10/10 01:22:05;;;;;;;;;;;;;;;;;;349222;28;2029;-61
2022/10/10 01:22:18;;;;;;;;;;;;;;;;;;349988;28;778;-61
2022/10/10 01:22:36;;;;;;;;;;;;;;;;;;349945;28;960;-61
2022/10/10 01:22:46;;;;;;;;;;;;;;;;;;349918;28;1914;-61
2022/10/10 01:23:06;;;;;;;;;;;;;;;;;;349926;28;849;-61
2022/10/10 01:23:35;;;;;;;;;;;;;;;;;;350010;28;924;-61